< < Back
Terminal Aerodrome Forecast


Current Version              Previous Versions:   1  2  3  4  5  6  7  8  9  

Terminal Aerodrome Forecast

466
FTAK31 PAJN 041737
TAFAGS
TAF
PAGS 041737Z 0418/0518 11008KT P6SM VCSH BKN035
      TEMPO 0418/0422 VRB05KT -SHRA BKN025 OVC035
     FM042200 15008KT P6SM VCSH SCT035 BKN050
     FM050500 14010KT P6SM -RA SCT030 OVC050
     FM050800 13012KT 5SM -RA BR BKN020 OVC035
      AMD LTD TO CLD VIS AND WIND=

Latest METAR

540
SAUS70 KWBC 050100 RRI
MTRAGS
METAR KAGS 050053Z 27005KT 10SM CLR 18/08 A2967 RMK AO2 SLP045
T01780078


USA.gov is the U.S. government's official web portal to all federal, state and local government web resources and services.